This is the latest recevied weather packets stored in our database for station/object BI2QYU-13. If no packets are shown the sender has not sent any weather packets the latest 10 day(s).
| Time | Temp. | Humidity | Pressure | Rain* | Wind** | Luminosity | Snow |
|---|---|---|---|---|---|---|---|
| 1778025667 | 26.67° C | 41% | 1025 hPa | 0 mm | - | - | - |
| 1778023863 | 23.89° C | 47% | 1025 hPa | 0 mm | - | - | - |
| 1778022060 | 26.67° C | 39% | 1025 hPa | 0 mm | - | - | - |
| 1778020257 | 26.67° C | 40% | 1025 hPa | 0 mm | - | - | - |
| 1778018454 | 26.67° C | 39% | 1025 hPa | 0 mm | - | - | - |
| 1778016648 | 26.11° C | 39% | 1025 hPa | 0 mm | - | - | - |
| 1778014846 | 26.67° C | 38% | 1025 hPa | 0 mm | - | - | - |
| 1778013043 | 26.67° C | 39% | 1025 hPa | 0 mm | - | - | - |
| 1778011240 | 26.67° C | 38% | 1025 hPa | 0 mm | - | - | - |
| 1778009438 | 27.22° C | 37% | 1025 hPa | 0 mm | - | - | - |
| 1778007635 | 27.22° C | 37% | 1025 hPa | 0 mm | - | - | - |
| 1778005832 | 27.78° C | 36% | 1025 hPa | 0 mm | - | - | - |
| 1778004029 | 28.33° C | 34% | 1025 hPa | 0 mm | - | - | - |
| 1778002227 | 28.33° C | 34% | 1025 hPa | 0 mm | - | - | - |
| 1778000424 | 28.89° C | 34% | 1025 hPa | 0 mm | - | - | - |
| 1777998621 | 29.44° C | 33% | 1025 hPa | 0 mm | - | - | - |
| 1777996818 | 28.89° C | 33% | 1025 hPa | 0 mm | - | - | - |
| 1777995015 | 28.89° C | 34% | 1025 hPa | 0 mm | - | - | - |
| 1777993211 | 28.89° C | 34% | 1025 hPa | 0 mm | - | - | - |
| 1777991409 | 28.89° C | 34% | 1025 hPa | 0 mm | - | - | - |
| 1777989606 | 28.89° C | 34% | 1025 hPa | 0 mm | - | - | - |
| 1777987803 | 28.89° C | 33% | 1025 hPa | 0 mm | - | - | - |
| 1777985999 | 28.89° C | 33% | 1025 hPa | 0 mm | - | - | - |
| 1777984197 | 28.89° C | 33% | 1025 hPa | 0 mm | - | - | - |
| 1777982394 | 28.89° C | 33% | 1025 hPa | 0 mm | - | - | - |
* Rain latest hour (hover to see other rain measurements)
** Current wind speed in m/s (hover to see current wind gust speed)